Data for 06/15/2013

Time Sea-Level Adjusted Pressure Absolute Pressure Temperature Relative Humidity Dew Point   
(mb) (inHg) (mb) (inHg) (C) (F) (%) (C) (F)
00:05 1022 30.18 851 25.13 6.7 44.1 65 0.7 33.3
00:10 1022 30.18 851 25.13 6.6 44 64 0.4 32.7
00:15 1022 30.18 851 25.13 6.7 44.1 63 0.3 32.5
00:20 1022 30.18 851 25.13 6.7 44.1 64 0.3 32.6
00:25 1022 30.18 851 25.13 6.7 44 64 0.4 32.8
00:30 1022 30.18 851 25.13 6.4 43.6 65 0.4 32.7
00:35 1022 30.18 851 25.13 6.2 43.1 68 0.8 33.5
00:40 1022 30.18 851 25.13 5.7 42.2 70 0.6 33.1
00:45 1022 30.18 851 25.13 5.7 42.3 66 -0 32
00:50 1022 30.18 851 25.13 6.2 43.2 68 0.7 33.3
00:55 1022 30.18 851 25.13 5.8 42.5 71 0.9 33.7
01:00 1022 30.18 851 25.13 5.4 41.7 71 0.6 33
01:05 1022 30.18 851 25.13 5.7 42.2 67 0.1 32.2
01:10 1022 30.18 851 25.13 6 42.7 67 0.3 32.6
01:15 1022 30.18 851 25.13 5.9 42.5 70 0.7 33.3
01:20 1022 30.18 851 25.13 5.7 42.3 68 0.2 32.4
01:25 1022 30.18 851 25.13 5.5 41.9 70 0.5 33
01:30 1022 30.18 851 25.13 5.4 41.7 70 0.4 32.7
01:35 1022 30.18 851 25.13 5.2 41.3 72 0.5 32.9
01:40 1022 30.18 851 25.13 4.7 40.5 73 0.3 32.5
01:45 1022 30.18 851 25.13 4.8 40.7 71 0 32.1
01:50 1022 30.18 851 25.13 5 41 69 -0.2 31.7
01:55 1022 30.18 851 25.13 5.4 41.6 69 0.1 32.2
02:00 1022 30.18 851 25.13 5.3 41.5 69 -0 32
02:05 1022 30.18 851 25.13 5.2 41.4 69 -0 31.9
02:10 1022 30.18 851 25.13 5.1 41.3 69 -0.1 31.8
02:15 1022 30.18 851 25.13 5.3 41.5 67 -0.4 31.3
02:20 1022 30.18 851 25.13 5.5 42 66 -0.3 31.4
02:25 1021 30.15 851 25.13 5.8 42.5 64 -0.4 31.2
02:30 1021 30.15 851 25.13 5.9 42.5 64 -0.4 31.3
02:35 1021 30.15 851 25.13 5.8 42.4 65 -0.3 31.4
02:40 1021 30.15 851 25.13 5.5 41.9 67 -0.2 31.7
02:45 1021 30.15 851 25.13 5.3 41.5 68 -0.1 31.8
02:50 1021 30.15 851 25.13 5.2 41.3 69 -0.1 31.8
02:55 1021 30.15 851 25.13 5.1 41.3 68 -0.3 31.5
03:00 1021 30.15 851 25.13 5.2 41.3 68 -0.3 31.5
03:05 1021 30.15 851 25.13 5 40.9 70 -0.1 31.9
03:10 1021 30.15 851 25.13 4.6 40.2 71 -0.2 31.6
03:15 1021 30.15 851 25.13 4.4 40 72 -0.2 31.6
03:20 1021 30.15 851 25.13 4.4 40 71 -0.5 31.2
03:25 1021 30.15 851 25.13 4.6 40.2 70 -0.4 31.3
03:30 1021 30.15 851 25.13 4.4 40 71 -0.3 31.5
03:35 1022 30.18 851 25.13 4.4 39.9 71 -0.4 31.3
03:40 1021 30.15 851 25.13 4.4 40 71 -0.3 31.4
03:45 1021 30.15 851 25.13 4.3 39.8 72 -0.3 31.5
03:50 1022 30.18 851 25.13 4.1 39.4 74 -0 31.9
03:55 1021 30.15 851 25.13 4 39.2 74 -0.3 31.4
04:00 1021 30.15 851 25.13 3.9 39 74 -0.3 31.4
04:05 1022 30.18 851 25.13 3.7 38.7 76 -0.2 31.7
04:10 1022 30.18 851 25.13 3.7 38.6 73 -0.6 30.9
04:15 1022 30.18 851 25.13 3.9 39.1 73 -0.4 31.2
04:20 1022 30.18 851 25.13 3.9 39.1 73 -0.4 31.3
04:25 1022 30.18 851 25.13 3.9 39 73 -0.5 31.1
04:30 1022 30.18 851 25.13 4 39.1 73 -0.5 31.1
04:35 1022 30.18 851 25.13 4 39.2 72 -0.6 31
04:40 1022 30.18 851 25.13 4.2 39.6 71 -0.7 30.8
04:45 1022 30.18 851 25.13 4.2 39.6 72 -0.4 31.2
04:50 1022 30.18 851 25.13 4 39.1 72 -0.6 31
04:55 1022 30.18 851 25.13 4 39.1 71 -0.7 30.7
05:00 1022 30.18 851 25.13 4.2 39.5 70 -0.8 30.6
05:05 1022 30.18 851 25.13 4.4 40 68 -0.9 30.4
05:10 1022 30.18 851 25.13 4.8 40.6 68 -0.6 30.9
05:15 1022 30.18 851 25.13 4.9 40.8 67 -0.7 30.7
05:20 1021 30.15 851 25.13 4.7 40.5 69 -0.4 31.2
05:25 1022 30.18 851 25.13 4.4 39.9 71 -0.4 31.3
05:30 1022 30.18 851 25.13 4.3 39.7 70 -0.6 30.9
05:35 1022 30.18 851 25.13 4.5 40.2 70 -0.5 31.2
05:40 1022 30.18 851 25.13 4.7 40.5 69 -0.5 31.2
05:45 1022 30.18 851 25.13 4.9 40.8 68 -0.4 31.2
05:50 1022 30.18 851 25.13 5.2 41.4 67 -0.3 31.4
05:55 1022 30.18 851 25.13 5.4 41.8 67 -0.2 31.7
06:00 1022 30.18 851 25.13 5.5 41.9 66 -0.3 31.4
06:05 1022 30.18 851 25.13 5.6 42.1 66 -0.1 31.8
06:10 1022 30.18 851 25.13 5.8 42.5 66 0 32
06:15 1022 30.18 851 25.13 6.1 43 64 -0.3 31.5
06:20 1022 30.18 851 25.13 6.3 43.3 65 0.2 32.4
06:25 1022 30.18 851 25.13 6.4 43.5 66 0.6 33.1
06:30 1022 30.18 851 25.13 6.7 44 64 0.3 32.6
06:35 1022 30.18 851 25.13 7.4 45.3 60 0.2 32.4
06:40 1022 30.18 851 25.13 7.7 45.9 60 0.5 32.9
06:45 1022 30.18 851 25.13 8.3 46.9 56 -0 31.9
06:50 1022 30.18 851 25.13 8.6 47.4 57 0.6 33.1
06:55 1022 30.18 851 25.13 9 48.3 55 0.5 33
07:00 1022 30.18 851 25.13 9.7 49.5 53 0.6 33.1
07:05 1022 30.18 851 25.13 9.5 49.1 52 0.2 32.3
07:10 1022 30.18 851 25.13 10 50 50 0 32
07:15 1022 30.18 851 25.13 10.4 50.7 50 0.6 33
07:20 1022 30.18 851 25.13 11 51.9 49 0.7 33.3
07:25 1022 30.18 851 25.13 11.6 52.8 46 0.5 32.9
07:30 1022 30.18 851 25.13 11.6 52.9 46 0.5 33
07:35 1022 30.18 851 25.13 12.2 53.9 46 1 33.8
07:40 1022 30.18 851 25.13 12.5 54.5 47 1.6 34.9
07:45 1022 30.18 851 25.13 12.5 54.4 45 0.9 33.6
07:50 1022 30.18 851 25.13 12.2 54 45 0.7 33.3
07:55 1022 30.18 851 25.13 11.9 53.3 46 0.8 33.4
08:00 1022 30.18 851 25.13 12.3 54.1 45 0.7 33.3
08:05 1022 30.18 851 25.13 11.8 53.3 44 0.1 32.3
08:10 1022 30.18 851 25.13 12 53.6 42 -0.3 31.5
08:15 1022 30.18 851 25.13 12.3 54.2 40 -0.8 30.6
08:20 1022 30.18 851 25.13 13.4 56.2 40 0.1 32.1
08:25 1022 30.18 851 25.13 13.5 56.2 39 -0.2 31.6
08:30 1022 30.18 851 25.13 13.5 56.3 39 -0.2 31.6
08:35 1022 30.18 851 25.13 13.8 56.8 39 -0 32
08:40 1022 30.18 851 25.13 13.8 56.8 43 1.3 34.4
08:45 1022 30.18 851 25.13 13.3 56 41 0.3 32.6
08:50 1022 30.18 851 25.13 13.8 56.9 39 0.1 32.3
08:55 1021 30.15 851 25.13 14 57.2 41 1 33.8
09:00 1022 30.18 851 25.13 13.4 56.2 41 0.7 33.2
09:05 1021 30.15 851 25.13 13.1 55.6 42 0.7 33.2
09:10 1021 30.15 851 25.13 13.3 55.9 40 0.1 32.2
09:15 1021 30.15 850 25.1 13.9 57.1 41 0.9 33.6
09:20 1021 30.15 850 25.1 13.8 56.8 38 -0.2 31.7
09:25 1021 30.15 850 25.1 14.9 58.9 38 0.7 33.3
09:30 1021 30.15 850 25.1 15.1 59.1 37 0.6 33.1
09:35 1021 30.15 850 25.1 15.1 59.2 38 0.9 33.6
09:40 1021 30.15 850 25.1 15.3 59.6 38 1.1 34
09:45 1021 30.15 850 25.1 14.9 58.7 37 0.5 33
09:50 1021 30.15 850 25.1 15.2 59.4 35 0 32.1
09:55 1021 30.15 850 25.1 15.2 59.4 36 0.5 32.9
10:00 1021 30.15 850 25.1 15.4 59.6 37 0.7 33.3
10:05 1021 30.15 850 25.1 15.8 60.5 35 0.4 32.6
10:10 1021 30.15 850 25.1 15.8 60.5 36 0.9 33.6
10:15 1021 30.15 850 25.1 16.2 61.1 32 -0.4 31.2
10:20 1021 30.15 850 25.1 17 62.6 31 -0.1 31.8
10:25 1021 30.15 850 25.1 17.4 63.2 31 -0 32
10:30 1021 30.15 850 25.1 17.2 63 31 0.2 32.3
10:35 1021 30.15 850 25.1 17.2 63 30 -0.5 31.1
10:40 1021 30.15 850 25.1 17.1 62.8 30 -0.5 31.1
10:45 1021 30.15 850 25.1 17.4 63.3 30 -0.4 31.2
10:50 1021 30.15 850 25.1 17.5 63.4 31 0.1 32.1
10:55 1021 30.15 850 25.1 17.7 63.8 29 -0.5 31
11:00 1021 30.15 850 25.1 17.4 63.4 29 -0.7 30.8
11:05 1021 30.15 850 25.1 17.7 63.8 29 -0.3 31.4
11:10 1021 30.15 850 25.1 17.5 63.5 30 -0.2 31.7
11:15 1021 30.15 850 25.1 17.7 63.9 28 -0.9 30.4
11:20 1021 30.15 850 25.1 18.2 64.8 26 -1.4 29.5
11:25 1021 30.15 850 25.1 18.6 65.5 27 -0.8 30.6
11:30 1021 30.15 850 25.1 17.2 62.9 29 -1 30.1
11:35 1020 30.12 850 25.1 17.3 63.2 30 -0.5 31.1
11:40 1020 30.12 850 25.1 18.5 65.3 28 -0.3 31.5
11:45 1020 30.12 850 25.1 19 66.2 28 0.4 32.8
11:50 1020 30.12 850 25.1 18.2 64.8 28 -0.4 31.3
11:55 1020 30.12 849 25.07 19.2 66.5 28 0.4 32.6
12:00 1020 30.12 849 25.07 19.2 66.6 27 -0 32
12:05 1020 30.12 849 25.07 19 66.1 30 1.1 33.9
12:10 1020 30.12 849 25.07 18.3 64.9 30 0.5 32.8
12:15 1020 30.12 849 25.07 18.6 65.4 29 0.3 32.5
12:20 1020 30.12 849 25.07 19.3 66.7 27 0.2 32.4
12:25 1020 30.12 849 25.07 19.5 67.1 27 0.2 32.3
12:30 1020 30.12 849 25.07 19.6 67.2 28 0.5 32.9
12:35 1020 30.12 849 25.07 19.4 66.9 28 0.4 32.8
12:40 1020 30.12 849 25.07 19 66.2 27 -0.1 31.8
12:45 1020 30.12 849 25.07 19.7 67.5 26 0 32
12:50 1020 30.12 849 25.07 20.1 68.2 27 0.7 33.2
12:55 1020 30.12 849 25.07 19.8 67.7 25 -0.4 31.3
13:00 1020 30.12 849 25.07 19.8 67.6 26 -0.2 31.6
13:05 1020 30.12 849 25.07 19.9 67.8 25 -0.6 31
13:10 1020 30.12 849 25.07 20.1 68.2 25 -0.3 31.5
13:15 1020 30.12 849 25.07 19.8 67.6 26 -0.3 31.4
13:20 1020 30.12 849 25.07 20.3 68.5 26 0.2 32.3
13:25 1019 30.09 849 25.07 20.7 69.2 25 0 32.1
13:30 1019 30.09 849 25.07 20 67.9 26 0.1 32.1
13:35 1019 30.09 849 25.07 20.1 68.2 25 -0.5 31
13:40 1019 30.09 849 25.07 21.4 70.5 23 -0.2 31.6
13:45 1019 30.09 848 25.04 20.3 68.6 24 -0.5 31
13:50 1019 30.09 848 25.04 20.4 68.7 25 -0.4 31.4
13:55 1019 30.09 848 25.04 21.3 70.3 24 0 32
14:00 1019 30.09 848 25.04 21.2 70.1 25 0.5 33
14:05 1019 30.09 848 25.04 21.6 70.8 23 0 32.1
14:10 1019 30.09 848 25.04 22 71.6 22 -0.4 31.3
14:15 1019 30.09 848 25.04 22.2 72 24 0.7 33.2
14:20 1019 30.09 848 25.04 21.9 71.4 23 -0.1 31.9
14:25 1019 30.09 848 25.04 21.8 71.3 23 -0.2 31.6
14:30 1019 30.09 848 25.04 21.1 69.9 25 0.6 33.1
14:35 1019 30.09 848 25.04 20.7 69.2 24 -0.2 31.6
14:40 1019 30.09 848 25.04 21.1 70.1 24 0 32
14:45 1019 30.09 848 25.04 21.9 71.4 23 0 32.1
14:50 1019 30.09 848 25.04 22 71.5 21 -1 30.3
14:55 1019 30.09 848 25.04 22.3 72.2 22 -0.1 31.9
15:00 1019 30.09 848 25.04 22.4 72.3 24 0.8 33.4
15:05 1019 30.09 848 25.04 21.9 71.4 24 0.5 32.9
15:10 1018 30.06 848 25.04 22 71.5 23 -0.1 31.9
15:15 1018 30.06 848 25.04 22.3 72.1 23 0.3 32.6
15:20 1018 30.06 848 25.04 22.3 72.2 22 -0.4 31.3
15:25 1018 30.06 847 25.01 22.7 72.9 21 -0.7 30.7
15:30 1018 30.06 847 25.01 21.9 71.5 22 -0.3 31.4
15:35 1018 30.06 847 25.01 22.7 72.9 21 -0.6 30.9
15:40 1018 30.06 847 25.01 22.2 72 23 0.1 32.1
15:45 1018 30.06 847 25.01 22.2 71.9 23 0 32
15:50 1018 30.06 847 25.01 22.1 71.8 23 0.4 32.8
15:55 1018 30.06 847 25.01 22 71.7 23 -0.1 31.7
16:00 1018 30.06 847 25.01 22.2 72 22 -0.1 31.8
16:05 1018 30.06 847 25.01 22.1 71.7 24 0.6 33
16:10 1018 30.06 847 25.01 22.1 71.8 22 -0.1 31.8
16:15 1018 30.06 847 25.01 22.1 71.9 22 -0.5 31.2
16:20 1018 30.06 847 25.01 22.1 71.8 22 -0.3 31.5
16:25 1018 30.06 847 25.01 22.3 72.1 22 -0.4 31.3
16:30 1018 30.06 847 25.01 22 71.6 22 -0.4 31.3
16:35 1018 30.06 847 25.01 22.3 72.1 22 -0.5 31
16:40 1018 30.06 847 25.01 21.9 71.4 22 -0.4 31.2
16:45 1018 30.06 847 25.01 21.9 71.5 22 -0.8 30.5
16:50 1018 30.06 847 25.01 22.2 72 21 -0.7 30.7
16:55 1018 30.06 847 25.01 22.2 72 22 -0.3 31.4
17:00 1018 30.06 847 25.01 22.2 72 21 -1.1 30
17:05 1018 30.06 847 25.01 22.2 71.9 21 -0.8 30.6
17:10 1018 30.06 847 25.01 21.3 70.3 22 -1.1 30.1
17:15 1018 30.06 847 25.01 21.2 70.1 22 -1.3 29.7
17:20 1018 30.06 847 25.01 21.7 71 21 -1.5 29.3
17:25 1018 30.06 847 25.01 22.4 72.4 21 -1 30.2
17:30 1018 30.06 847 25.01 22.6 72.7 20 -1 30.2
17:35 1018 30.06 847 25.01 21.7 71.1 22 -0.8 30.5
17:40 1018 30.06 847 25.01 21.7 71.1 21 -1.3 29.6
17:45 1018 30.06 847 25.01 22.3 72.1 21 -1.1 29.9
17:50 1018 30.06 847 25.01 22.6 72.6 20 -1.1 30
17:55 1018 30.06 847 25.01 22.3 72.1 22 -0.4 31.3
18:00 1018 30.06 847 25.01 22.1 71.8 20 -1.8 28.7
18:05 1018 30.06 847 25.01 21.7 71 20 -1.9 28.6
18:10 1018 30.06 847 25.01 22.1 71.7 21 -1 30.3
18:15 1018 30.06 847 25.01 22.2 72 19 -2 28.4
18:20 1018 30.06 847 25.01 22.3 72.2 20 -1.8 28.8
18:25 1018 30.06 847 25.01 22.4 72.4 19 -2.2 28
18:30 1018 30.06 847 25.01 22.2 72 20 -1.4 29.5
18:35 1018 30.06 847 25.01 21.7 71 23 -0.5 31.2
18:40 1018 30.06 847 25.01 21.3 70.3 21 -1.5 29.4
18:45 1018 30.06 847 25.01 21 69.8 22 -1.6 29.1
18:50 1018 30.06 847 25.01 20.8 69.5 21 -2.1 28.2
18:55 1018 30.06 847 25.01 20.7 69.2 21 -2.5 27.5
19:00 1018 30.06 847 25.01 20.7 69.3 21 -2.5 27.6
19:05 1018 30.06 847 25.01 20.5 68.9 21 -2.2 28
19:10 1018 30.06 847 25.01 20.5 68.8 21 -2.6 27.4
19:15 1018 30.06 847 25.01 20.4 68.7 22 -2.1 28.1
19:20 1018 30.06 847 25.01 20.5 68.8 22 -1.8 28.8
19:25 1018 30.06 847 25.01 20.4 68.7 22 -1.6 29.1
19:30 1018 30.06 847 25.01 20.3 68.6 25 -0.4 31.3
19:35 1018 30.06 847 25.01 20.1 68.2 28 1.2 34.1
19:40 1018 30.06 847 25.01 19.8 67.7 28 0.8 33.5
19:45 1018 30.06 847 25.01 19.7 67.5 28 0.8 33.5
19:50 1018 30.06 847 25.01 19.6 67.3 29 1.1 34
19:55 1018 30.06 847 25.01 19.5 67.2 29 1.1 34
20:00 1018 30.06 847 25.01 19.4 66.9 31 1.8 35.2
20:05 1018 30.06 847 25.01 19 66.2 38 4.5 40.2
20:10 1018 30.06 847 25.01 18.1 64.6 39 4.1 39.3
20:15 1018 30.06 847 25.01 17.6 63.6 41 4.4 39.9
20:20 1018 30.06 847 25.01 17 62.6 44 4.7 40.4
20:25 1018 30.06 847 25.01 16.4 61.6 45 4.6 40.4
20:30 1018 30.06 847 25.01 16.1 60.9 45 4.1 39.4
20:35 1018 30.06 847 25.01 15.6 60.1 48 4.6 40.3
20:40 1018 30.06 848 25.04 15.2 59.4 52 5.5 41.9
20:45 1018 30.06 848 25.04 15 59.1 50 4.7 40.4
20:50 1018 30.06 848 25.04 14.7 58.4 50 4.4 39.9
20:55 1019 30.09 848 25.04 14.5 58.1 50 4.2 39.6
21:00 1019 30.09 848 25.04 14.3 57.8 50 4 39.2
21:05 1019 30.09 848 25.04 14.4 57.9 45 2.8 37.1
21:10 1019 30.09 848 25.04 14.5 58 52 4.9 40.8
21:15 1019 30.09 848 25.04 13.7 56.6 54 4.5 40.1
21:20 1019 30.09 848 25.04 13.3 55.9 51 3.5 38.4
21:25 1019 30.09 848 25.04 13.4 56.1 49 3 37.3
21:30 1019 30.09 848 25.04 13.6 56.5 48 3 37.4
21:35 1019 30.09 848 25.04 13.5 56.3 48 2.8 37
21:40 1019 30.09 848 25.04 13.4 56.1 48 2.7 36.8
21:45 1019 30.09 848 25.04 13.3 56 48 2.8 37
21:50 1019 30.09 848 25.04 13.3 55.9 48 2.5 36.5
21:55 1019 30.09 848 25.04 13.2 55.8 48 2.4 36.4
22:00 1019 30.09 848 25.04 13.2 55.7 48 2.5 36.4
22:05 1019 30.09 848 25.04 13 55.4 48 2.5 36.4
22:10 1019 30.09 848 25.04 12.9 55.2 49 2.4 36.4
22:15 1019 30.09 848 25.04 12.7 54.9 49 2.3 36.1
22:20 1019 30.09 849 25.07 12.6 54.7 48 2.1 35.7
22:25 1020 30.12 849 25.07 12.7 54.8 48 1.9 35.4
22:30 1020 30.12 849 25.07 12.6 54.7 48 2 35.6
22:35 1020 30.12 849 25.07 12.4 54.4 48 1.8 35.3
22:40 1020 30.12 849 25.07 12.4 54.4 47 1.6 34.9
22:45 1020 30.12 849 25.07 12.4 54.3 48 1.8 35.3
22:50 1020 30.12 849 25.07 12.3 54.1 51 2.5 36.5
22:55 1020 30.12 849 25.07 12 53.5 52 2.4 36.3
23:00 1020 30.12 849 25.07 11.6 52.9 51 1.9 35.5
23:05 1020 30.12 849 25.07 11.6 52.8 50 1.6 34.8
23:10 1020 30.12 849 25.07 11.8 53.3 51 2 35.6
23:15 1020 30.12 849 25.07 11.4 52.5 55 2.8 37
23:20 1020 30.12 849 25.07 11.2 52.2 55 2.6 36.6
23:25 1020 30.12 849 25.07 11.4 52.6 53 2.3 36.1
23:30 1020 30.12 849 25.07 11.7 53 53 2.3 36.2
23:35 1020 30.12 849 25.07 11.6 53 53 2.4 36.2
23:40 1020 30.12 849 25.07 11.7 53 52 2.1 35.8
23:45 1020 30.12 849 25.07 11.9 53.3 52 2.3 36.1
23:50 1020 30.12 849 25.07 11.9 53.4 50 2 35.6
23:55 1020 30.12 849 25.07 11.7 53 53 2.6 36.6
24:00 1020 30.12 849 25.07 11.2 52.2 54 2.2 36